createdAt,value
2018-06-15T00:00:20.031Z,83.41
2018-06-15T00:02:54.405Z,84.18
2018-06-15T00:05:23.521Z,83.12
2018-06-15T00:07:53.230Z,84.47
2018-06-15T00:10:22.373Z,84.32
2018-06-15T00:12:51.481Z,84.16
2018-06-15T00:15:20.591Z,82.55
2018-06-15T00:17:49.708Z,84.08
2018-06-15T00:20:18.825Z,84.07
2018-06-15T00:22:47.929Z,84.18
2018-06-15T00:25:17.041Z,85.30
2018-06-15T00:27:46.156Z,84.01
2018-06-15T00:30:15.258Z,83.74
2018-06-15T00:32:44.377Z,83.43
2018-06-15T00:35:13.474Z,84.63
2018-06-15T00:37:42.584Z,84.45
2018-06-15T00:40:11.686Z,85.24
2018-06-15T00:42:40.809Z,84.75
2018-06-15T00:45:09.907Z,84.14
2018-06-15T00:47:39.022Z,83.23
2018-06-15T00:50:08.125Z,84.12
2018-06-15T00:52:37.246Z,83.51
2018-06-15T00:55:06.583Z,83.92
2018-06-15T00:57:44.133Z,83.66
2018-06-15T01:00:13.226Z,82.88
2018-06-15T01:02:42.365Z,83.78
2018-06-15T01:05:11.513Z,84.66
2018-06-15T01:07:40.644Z,83.26
2018-06-15T01:10:09.785Z,83.68
2018-06-15T01:12:38.893Z,83.68
2018-06-15T01:15:08.030Z,84.06
2018-06-15T01:17:37.521Z,83.82
2018-06-15T01:20:07.198Z,84.56
2018-06-15T01:22:36.423Z,83.59
2018-06-15T01:25:05.617Z,84.06
2018-06-15T01:27:34.817Z,83.98
2018-06-15T01:30:03.985Z,84.01
2018-06-15T01:32:33.081Z,84.36
2018-06-15T01:35:02.177Z,84.67
2018-06-15T01:37:31.289Z,84.66
2018-06-15T01:40:00.413Z,84.20
2018-06-15T01:42:29.526Z,83.81
2018-06-15T01:44:58.641Z,84.89
2018-06-15T01:47:27.777Z,83.99
2018-06-15T01:49:56.903Z,84.46
2018-06-15T01:52:26.034Z,83.43
2018-06-15T01:54:55.124Z,84.22
2018-06-15T01:57:24.278Z,84.53
2018-06-15T01:59:53.385Z,84.39
2018-06-15T02:02:22.507Z,82.71
2018-06-15T02:04:51.609Z,85.29
2018-06-15T02:07:20.705Z,85.02
2018-06-15T02:09:50.057Z,84.67
2018-06-15T02:12:19.169Z,85.26
2018-06-15T02:14:48.272Z,84.35
2018-06-15T02:17:17.481Z,84.42
2018-06-15T02:19:46.557Z,84.82
2018-06-15T02:22:15.741Z,84.21
2018-06-15T02:24:44.865Z,84.58
2018-06-15T02:27:13.985Z,85.22
2018-06-15T02:29:43.081Z,83.55
2018-06-15T02:32:12.193Z,83.85
2018-06-15T02:34:41.295Z,83.28
2018-06-15T02:37:10.394Z,83.54
2018-06-15T02:39:39.525Z,84.31
2018-06-15T02:42:08.655Z,84.15
2018-06-15T02:44:37.756Z,84.62
2018-06-15T02:47:06.855Z,83.56
2018-06-15T02:49:35.965Z,84.77
2018-06-15T02:52:05.110Z,84.92
2018-06-15T02:54:34.212Z,83.75
2018-06-15T02:57:03.317Z,84.46
2018-06-15T02:59:32.482Z,83.99
2018-06-15T03:02:01.591Z,83.72
2018-06-15T03:04:30.712Z,84.16
2018-06-15T03:06:59.833Z,83.73
2018-06-15T03:09:28.942Z,84.26
2018-06-15T03:11:58.085Z,84.70
2018-06-15T03:14:27.186Z,84.37
2018-06-15T03:16:56.405Z,84.04
2018-06-15T03:19:25.517Z,84.75
2018-06-15T03:21:54.617Z,84.50
2018-06-15T03:24:23.724Z,84.11
2018-06-15T03:26:52.837Z,83.93
2018-06-15T03:29:21.930Z,84.02
2018-06-15T03:31:51.052Z,84.48
2018-06-15T03:34:20.158Z,84.37
2018-06-15T03:36:49.256Z,84.70
2018-06-15T03:39:18.357Z,84.87
2018-06-15T03:41:47.468Z,84.90
2018-06-15T03:44:16.601Z,84.75
2018-06-15T03:46:45.730Z,85.39
2018-06-15T03:49:14.866Z,85.50
2018-06-15T03:51:44.006Z,85.02
2018-06-15T03:54:13.130Z,85.19
2018-06-15T03:56:42.239Z,84.05
2018-06-15T03:59:11.466Z,84.08
2018-06-15T04:01:40.570Z,84.03
2018-06-15T04:04:09.704Z,84.08
2018-06-15T04:06:38.809Z,85.01
2018-06-15T04:09:09.581Z,84.22
2018-06-15T04:11:39.068Z,84.61
2018-06-15T04:14:08.198Z,83.90
2018-06-15T04:16:37.341Z,83.72
2018-06-15T04:19:06.541Z,84.69
2018-06-15T04:21:35.659Z,83.91
2018-06-15T04:24:04.767Z,83.98
2018-06-15T04:26:33.929Z,84.17
2018-06-15T04:29:03.061Z,84.26
2018-06-15T04:31:32.213Z,85.37
2018-06-15T04:34:01.317Z,85.16
2018-06-15T04:36:30.493Z,85.29
2018-06-15T04:38:59.658Z,84.73
2018-06-15T04:41:28.846Z,84.11
2018-06-15T04:43:58.041Z,84.07
2018-06-15T04:46:27.117Z,83.93
2018-06-15T04:48:56.253Z,84.46
2018-06-15T04:51:25.343Z,84.21
2018-06-15T04:53:54.448Z,84.77
2018-06-15T04:56:23.581Z,83.88
2018-06-15T04:58:52.637Z,85.50
2018-06-15T05:01:21.753Z,85.77
2018-06-15T05:03:50.853Z,84.71
2018-06-15T05:06:20.061Z,84.42
2018-06-15T05:08:49.174Z,83.73
2018-06-15T05:11:18.277Z,86.08
2018-06-15T05:13:47.374Z,86.33
2018-06-15T05:16:16.493Z,86.53
2018-06-15T05:18:45.663Z,85.27
2018-06-15T05:21:15.146Z,84.85
2018-06-15T05:23:44.229Z,83.90
2018-06-15T05:26:13.365Z,85.19
2018-06-15T05:28:42.511Z,83.69
2018-06-15T05:31:11.617Z,84.22
2018-06-15T05:33:40.734Z,85.16
2018-06-15T05:36:09.849Z,83.63
2018-06-15T05:38:38.945Z,83.60
2018-06-15T05:41:08.042Z,83.94
2018-06-15T05:43:37.181Z,82.78
2018-06-15T05:46:06.290Z,83.29
2018-06-15T05:48:35.490Z,83.47
2018-06-15T05:51:04.582Z,84.24
2018-06-15T05:53:33.690Z,83.05
2018-06-15T05:56:02.814Z,83.52
2018-06-15T05:58:31.925Z,83.13
2018-06-15T06:01:01.130Z,82.53
2018-06-15T06:03:30.250Z,82.35
2018-06-15T06:05:59.382Z,81.87
2018-06-15T06:08:28.678Z,81.46
2018-06-15T06:10:57.798Z,81.85
2018-06-15T06:13:26.974Z,81.67
2018-06-15T06:15:56.077Z,81.97
2018-06-15T06:18:25.167Z,82.23
2018-06-15T06:20:54.309Z,82.47
2018-06-15T06:23:23.443Z,81.16
2018-06-15T06:25:52.617Z,80.95
2018-06-15T06:28:21.729Z,80.85
2018-06-15T06:30:50.841Z,82.07
2018-06-15T06:33:19.945Z,80.72
2018-06-15T06:35:49.086Z,80.97
2018-06-15T06:38:18.230Z,81.12
2018-06-15T06:40:47.349Z,82.08
2018-06-15T06:43:16.477Z,80.81
2018-06-15T06:45:45.578Z,82.16
2018-06-15T06:48:14.685Z,81.37
2018-06-15T06:50:43.794Z,80.80
2018-06-15T06:53:12.917Z,80.40
2018-06-15T06:55:42.018Z,80.46
2018-06-15T06:58:11.229Z,79.73
2018-06-15T07:00:40.581Z,79.99
2018-06-15T07:03:09.689Z,79.82
2018-06-15T07:05:38.797Z,79.17
2018-06-15T07:08:07.894Z,78.59
2018-06-15T07:10:36.993Z,79.46
2018-06-15T07:13:06.130Z,76.63
2018-06-15T07:15:35.237Z,76.33
2018-06-15T07:18:04.343Z,74.43
2018-06-15T07:20:33.535Z,75.09
2018-06-15T07:23:02.721Z,75.15
2018-06-15T07:25:31.831Z,75.10
2018-06-15T07:28:00.940Z,76.07
2018-06-15T07:30:30.061Z,74.81
2018-06-15T07:32:59.169Z,69.43
2018-06-15T07:35:28.333Z,73.02
2018-06-15T07:37:57.431Z,73.28
2018-06-15T07:40:26.577Z,73.87
2018-06-15T07:42:55.681Z,72.43
2018-06-15T07:45:24.773Z,74.00
2018-06-15T07:47:53.883Z,74.66
2018-06-15T07:50:22.986Z,73.76
2018-06-15T07:52:52.186Z,74.93
2018-06-15T07:55:21.306Z,73.85
2018-06-15T07:57:50.417Z,75.09
2018-06-15T08:00:19.502Z,74.22
2018-06-15T08:02:48.621Z,72.72
2018-06-15T08:05:17.725Z,70.68
2018-06-15T08:07:46.841Z,71.49
2018-06-15T08:10:16.067Z,70.82
2018-06-15T08:12:45.117Z,68.99
2018-06-15T08:15:14.265Z,67.87
2018-06-15T08:17:43.402Z,67.62
2018-06-15T08:20:12.541Z,66.83
2018-06-15T08:22:41.634Z,68.66
2018-06-15T08:25:10.768Z,67.31
2018-06-15T08:27:39.875Z,65.57
2018-06-15T08:30:08.969Z,66.85
2018-06-15T08:32:38.101Z,66.04
2018-06-15T08:35:07.219Z,64.98
2018-06-15T08:37:36.353Z,68.08
2018-06-15T08:40:05.513Z,66.68
2018-06-15T08:42:34.703Z,65.48
2018-06-15T08:45:03.921Z,65.61
2018-06-15T08:47:33.021Z,65.63
2018-06-15T08:50:02.137Z,67.31
2018-06-15T08:52:31.275Z,68.80
2018-06-15T08:55:00.422Z,67.49
2018-06-15T08:57:29.518Z,65.35
2018-06-15T08:59:58.701Z,63.70
2018-06-15T09:02:27.843Z,62.94
2018-06-15T09:04:56.985Z,62.95
2018-06-15T09:07:27.049Z,63.26
2018-06-15T09:09:56.165Z,60.64
2018-06-15T09:12:25.486Z,58.83
2018-06-15T09:14:54.612Z,57.59
2018-06-15T09:17:23.708Z,55.11
2018-06-15T09:19:52.849Z,55.42
2018-06-15T09:22:21.952Z,57.66
2018-06-15T09:24:51.428Z,59.36
2018-06-15T09:27:20.525Z,58.76
2018-06-15T09:29:49.633Z,58.56
2018-06-15T09:32:18.741Z,59.25
2018-06-15T09:34:47.913Z,57.23
2018-06-15T09:37:17.015Z,56.45
2018-06-15T09:39:46.257Z,53.12
2018-06-15T09:42:15.349Z,53.36
2018-06-15T09:44:44.463Z,54.87
2018-06-15T09:47:13.567Z,55.04
2018-06-15T09:49:42.665Z,53.98
2018-06-15T09:52:11.777Z,54.60
2018-06-15T09:54:40.877Z,55.41
2018-06-15T09:57:10.030Z,54.67
2018-06-15T09:59:39.173Z,53.99
2018-06-15T10:02:08.322Z,54.38
2018-06-15T10:04:37.477Z,54.74
2018-06-15T10:07:06.593Z,53.92
2018-06-15T10:09:35.709Z,54.71
2018-06-15T10:12:04.824Z,55.53
2018-06-15T10:14:33.940Z,52.25
2018-06-15T10:17:03.058Z,53.53
2018-06-15T10:19:32.176Z,52.74
2018-06-15T10:22:01.302Z,53.66
2018-06-15T10:24:30.414Z,56.60
2018-06-15T10:26:59.550Z,55.77
2018-06-15T10:29:28.680Z,53.53
2018-06-15T10:31:57.805Z,55.50
2018-06-15T10:34:26.908Z,53.66
2018-06-15T10:36:56.030Z,52.91
2018-06-15T10:39:25.192Z,53.29
2018-06-15T10:41:54.279Z,54.03
2018-06-15T10:44:23.385Z,53.10
2018-06-15T10:46:52.676Z,52.62
2018-06-15T10:49:21.789Z,52.62
2018-06-15T10:51:50.897Z,54.19
2018-06-15T10:54:20.001Z,52.80
2018-06-15T10:56:49.106Z,49.44
2018-06-15T10:59:18.214Z,50.99
2018-06-15T11:01:47.325Z,51.86
2018-06-15T11:04:16.417Z,50.83
2018-06-15T11:06:45.520Z,51.45
2018-06-15T11:09:14.639Z,51.00
2018-06-15T11:11:43.733Z,52.69
2018-06-15T11:14:12.844Z,53.05
2018-06-15T11:16:41.980Z,50.94
2018-06-15T11:19:11.301Z,51.56
2018-06-15T11:21:40.405Z,53.13
2018-06-15T11:24:09.537Z,54.12
2018-06-15T11:26:38.687Z,52.28
2018-06-15T11:29:07.878Z,52.28
2018-06-15T11:31:37.006Z,52.27
2018-06-15T11:34:06.127Z,52.68
2018-06-15T11:36:35.262Z,53.47
2018-06-15T11:39:06.177Z,52.41
2018-06-15T11:41:35.446Z,53.57
2018-06-15T11:44:04.913Z,51.19
2018-06-15T11:46:34.191Z,51.81
2018-06-15T11:49:03.517Z,53.37
2018-06-15T11:51:32.633Z,50.92
2018-06-15T11:54:01.758Z,50.47
2018-06-15T11:56:31.106Z,50.36
2018-06-15T11:59:00.199Z,52.86
2018-06-15T12:01:29.305Z,52.53
2018-06-15T12:03:58.426Z,51.63
2018-06-15T12:06:27.557Z,50.85
2018-06-15T12:08:56.701Z,50.44
2018-06-15T12:11:25.801Z,50.35
2018-06-15T12:13:54.886Z,51.03
2018-06-15T12:16:23.957Z,52.25
2018-06-15T12:18:53.356Z,50.67
2018-06-15T12:21:22.491Z,51.51
2018-06-15T12:23:51.594Z,51.00
2018-06-15T12:26:20.685Z,50.56
2018-06-15T12:28:49.813Z,50.49
2018-06-15T12:31:18.974Z,49.72
2018-06-15T12:33:48.077Z,50.49
2018-06-15T12:36:17.228Z,48.45
2018-06-15T12:38:46.346Z,49.18
2018-06-15T12:41:15.437Z,50.15
2018-06-15T12:43:44.538Z,49.22
2018-06-15T12:46:13.689Z,50.17
2018-06-15T12:48:42.838Z,49.34
2018-06-15T12:51:11.925Z,50.56
2018-06-15T12:53:41.065Z,49.22
2018-06-15T12:56:10.182Z,47.29
2018-06-15T12:58:39.294Z,48.53
2018-06-15T13:01:08.409Z,47.48
2018-06-15T13:03:37.540Z,44.12
2018-06-15T13:06:06.629Z,46.43
2018-06-15T13:08:35.755Z,46.56
2018-06-15T13:11:04.889Z,47.72
2018-06-15T13:13:35.074Z,46.47
2018-06-15T13:16:04.185Z,47.43
2018-06-15T13:18:33.502Z,47.05
2018-06-15T13:21:02.715Z,46.15
2018-06-15T13:23:31.911Z,45.95
2018-06-15T13:26:01.108Z,46.03
2018-06-15T13:28:30.215Z,46.33
2018-06-15T13:30:59.373Z,44.36
2018-06-15T13:33:28.545Z,46.04
2018-06-15T13:35:58.658Z,45.11
2018-06-15T13:38:27.775Z,45.48
2018-06-15T13:40:56.889Z,47.36
2018-06-15T13:43:25.992Z,46.24
2018-06-15T13:45:55.133Z,46.36
2018-06-15T13:48:24.225Z,46.82
2018-06-15T13:50:53.318Z,48.62
2018-06-15T13:53:22.396Z,48.53
2018-06-15T13:55:51.506Z,47.78
2018-06-15T13:58:20.646Z,46.04
2018-06-15T14:00:49.767Z,46.34
2018-06-15T14:03:18.945Z,46.57
2018-06-15T14:05:48.058Z,45.75
2018-06-15T14:08:17.194Z,44.51
2018-06-15T14:10:46.266Z,44.69
2018-06-15T14:13:15.373Z,45.85
2018-06-15T14:15:44.476Z,45.92
2018-06-15T14:18:13.564Z,45.33
2018-06-15T14:20:42.658Z,47.12
2018-06-15T14:23:11.785Z,44.88
2018-06-15T14:25:40.870Z,45.64
2018-06-15T14:28:10.050Z,47.24
2018-06-15T14:30:39.401Z,45.81
2018-06-15T14:33:08.505Z,46.82
2018-06-15T14:35:37.621Z,47.03
2018-06-15T14:38:06.706Z,45.20
2018-06-15T14:40:35.837Z,44.81
2018-06-15T14:43:04.918Z,44.25
2018-06-15T14:45:34.025Z,46.57
2018-06-15T14:48:03.138Z,46.29
2018-06-15T14:50:32.230Z,45.79
2018-06-15T14:53:01.366Z,45.33
2018-06-15T14:55:31.302Z,48.38
2018-06-15T14:58:00.406Z,49.32
2018-06-15T15:00:29.511Z,46.80
2018-06-15T15:02:58.700Z,48.50
2018-06-15T15:05:27.801Z,49.36
2018-06-15T15:07:56.975Z,50.00
2018-06-15T15:10:26.185Z,50.40
2018-06-15T15:12:55.398Z,47.88
2018-06-15T15:15:25.018Z,47.67
2018-06-15T15:17:54.346Z,49.72
2018-06-15T15:20:23.446Z,48.25
2018-06-15T15:22:52.619Z,48.69
2018-06-15T15:25:21.790Z,48.01
2018-06-15T15:27:50.895Z,46.13
2018-06-15T15:30:20.010Z,48.04
2018-06-15T15:32:49.105Z,48.23
2018-06-15T15:35:18.194Z,48.48
2018-06-15T15:37:47.309Z,48.00
2018-06-15T15:40:16.401Z,48.91
2018-06-15T15:42:45.589Z,46.88
2018-06-15T15:45:14.697Z,45.73
2018-06-15T15:47:43.787Z,47.71
2018-06-15T15:50:12.933Z,47.44
2018-06-15T15:52:42.073Z,46.17
2018-06-15T15:55:11.186Z,47.31
2018-06-15T15:57:40.306Z,47.17
2018-06-15T16:00:09.430Z,47.28
2018-06-15T16:02:38.537Z,47.98
2018-06-15T16:05:07.673Z,48.01
2018-06-15T16:07:36.769Z,47.55
2018-06-15T16:10:05.901Z,46.33
2018-06-15T16:12:35.009Z,46.84
2018-06-15T16:15:04.157Z,46.46
2018-06-15T16:17:33.261Z,45.79
2018-06-15T16:20:02.373Z,46.12
2018-06-15T16:22:31.506Z,46.98
2018-06-15T16:25:00.603Z,47.56
2018-06-15T16:27:29.735Z,48.52
2018-06-15T16:29:58.857Z,48.22
2018-06-15T16:32:27.986Z,48.06
2018-06-15T16:34:57.354Z,48.11
2018-06-15T16:37:26.965Z,47.92
2018-06-15T16:39:56.131Z,47.91
2018-06-15T16:42:25.245Z,47.35
2018-06-15T16:44:54.328Z,47.60
2018-06-15T16:47:23.473Z,47.86
2018-06-15T16:49:52.602Z,47.90
2018-06-15T16:52:21.686Z,48.99
2018-06-15T16:54:50.806Z,48.12
2018-06-15T16:57:19.922Z,48.41
2018-06-15T16:59:49.033Z,47.46
2018-06-15T17:02:18.139Z,47.92
2018-06-15T17:04:47.244Z,47.97
2018-06-15T17:07:16.333Z,48.17
2018-06-15T17:09:45.490Z,48.59
2018-06-15T17:12:14.590Z,47.64
2018-06-15T17:14:43.674Z,49.73
2018-06-15T17:17:12.816Z,50.00
2018-06-15T17:19:41.945Z,49.80
2018-06-15T17:22:11.058Z,50.49
2018-06-15T17:24:40.178Z,50.37
2018-06-15T17:27:09.295Z,50.83
2018-06-15T17:29:38.382Z,51.74
2018-06-15T17:32:07.515Z,52.15
2018-06-15T17:34:36.621Z,51.63
2018-06-15T17:37:05.996Z,51.30
2018-06-15T17:39:35.110Z,51.62
2018-06-15T17:42:04.237Z,52.41
2018-06-15T17:44:33.436Z,52.04
2018-06-15T17:47:02.478Z,52.64
2018-06-15T17:49:31.633Z,53.13
2018-06-15T17:52:00.743Z,52.39
2018-06-15T17:54:29.841Z,53.30
2018-06-15T17:56:59.069Z,53.69
2018-06-15T17:59:28.194Z,51.89
2018-06-15T18:01:57.298Z,52.89
2018-06-15T18:04:26.412Z,52.30
2018-06-15T18:06:55.505Z,52.95
2018-06-15T18:09:24.598Z,52.48
2018-06-15T18:11:53.718Z,52.09
2018-06-15T18:14:22.794Z,53.98
2018-06-15T18:16:51.890Z,53.09
2018-06-15T18:19:20.997Z,53.42
2018-06-15T18:21:50.157Z,53.65
2018-06-15T18:24:19.305Z,53.24
2018-06-15T18:26:48.476Z,54.51
2018-06-15T18:29:17.583Z,54.62
2018-06-15T18:31:46.798Z,54.16
2018-06-15T18:34:15.994Z,55.21
2018-06-15T18:36:45.327Z,54.11
2018-06-15T18:39:15.157Z,55.29
2018-06-15T18:41:44.525Z,54.85
2018-06-15T18:44:13.659Z,55.71
2018-06-15T18:46:42.761Z,54.88
2018-06-15T18:49:11.936Z,55.62
2018-06-15T18:51:41.016Z,57.09
2018-06-15T18:54:10.137Z,56.41
2018-06-15T18:56:39.232Z,56.17
2018-06-15T18:59:08.374Z,57.33
2018-06-15T19:01:37.548Z,57.48
2018-06-15T19:04:07.165Z,57.48
2018-06-15T19:06:36.270Z,56.58
2018-06-15T19:09:08.029Z,57.37
2018-06-15T19:11:37.133Z,57.43
2018-06-15T19:14:06.280Z,56.66
2018-06-15T19:16:35.403Z,58.06
2018-06-15T19:19:04.497Z,56.71
2018-06-15T19:21:33.573Z,57.45
2018-06-15T19:24:02.729Z,57.48
2018-06-15T19:26:31.924Z,56.91
2018-06-15T19:29:01.076Z,57.18
2018-06-15T19:31:30.177Z,57.65
2018-06-15T19:33:59.262Z,57.39
2018-06-15T19:36:28.349Z,57.15
2018-06-15T19:38:57.453Z,57.38
2018-06-15T19:41:26.564Z,57.67
2018-06-15T19:43:55.650Z,58.00
2018-06-15T19:46:24.801Z,58.47
2018-06-15T19:48:53.950Z,58.27
2018-06-15T19:51:23.070Z,58.13
2018-06-15T19:53:52.210Z,59.34
2018-06-15T19:56:21.318Z,60.34
2018-06-15T19:58:50.443Z,60.50
2018-06-15T20:01:19.595Z,61.08
2018-06-15T20:03:48.677Z,60.14
2018-06-15T20:06:17.761Z,60.77
2018-06-15T20:08:46.925Z,61.43
2018-06-15T20:11:16.122Z,61.54
2018-06-15T20:13:45.317Z,61.54
2018-06-15T20:16:14.460Z,60.87
2018-06-15T20:18:43.685Z,60.92
2018-06-15T20:21:12.937Z,61.34
2018-06-15T20:23:42.102Z,61.99
2018-06-15T20:26:11.206Z,62.07
2018-06-15T20:28:40.344Z,61.24
2018-06-15T20:31:11.283Z,61.30
2018-06-15T20:33:40.435Z,61.88
2018-06-15T20:36:09.699Z,61.85
2018-06-15T20:38:38.761Z,62.62
2018-06-15T20:41:07.978Z,62.95
2018-06-15T20:43:37.197Z,61.43
2018-06-15T20:46:06.301Z,61.18
2018-06-15T20:48:35.397Z,61.88
2018-06-15T20:51:04.541Z,62.03
2018-06-15T20:53:33.698Z,62.69
2018-06-15T20:56:02.785Z,62.17
2018-06-15T20:58:32.044Z,63.22
2018-06-15T21:01:01.138Z,62.14
2018-06-15T21:03:30.233Z,62.86
2018-06-15T21:05:59.382Z,62.68
2018-06-15T21:08:28.485Z,63.75
2018-06-15T21:10:57.605Z,62.99
2018-06-15T21:13:26.697Z,63.47
2018-06-15T21:15:55.819Z,62.60
2018-06-15T21:18:24.981Z,64.17
2018-06-15T21:20:54.572Z,63.70
2018-06-15T21:23:23.742Z,65.18
2018-06-15T21:25:52.853Z,64.97
2018-06-15T21:28:22.081Z,66.59
2018-06-15T21:30:51.538Z,65.75
2018-06-15T21:33:20.749Z,66.02
2018-06-15T21:35:49.925Z,66.77
2018-06-15T21:38:19.042Z,66.37
2018-06-15T21:40:48.145Z,66.27
2018-06-15T21:43:17.262Z,66.14
2018-06-15T21:45:46.394Z,66.63
2018-06-15T21:48:15.665Z,67.61
2018-06-15T21:50:44.766Z,67.32
2018-06-15T21:53:13.852Z,67.18
2018-06-15T21:55:42.963Z,66.50
2018-06-15T21:58:12.078Z,66.21
2018-06-15T22:00:41.318Z,66.83
2018-06-15T22:03:10.450Z,66.47
2018-06-15T22:05:39.559Z,66.58
2018-06-15T22:08:08.681Z,65.90
2018-06-15T22:10:37.833Z,66.78
2018-06-15T22:13:07.066Z,65.32
2018-06-15T22:15:36.195Z,66.62
2018-06-15T22:18:05.470Z,66.16
2018-06-15T22:20:34.634Z,66.70
2018-06-15T22:23:03.781Z,66.01
2018-06-15T22:25:32.885Z,67.41
2018-06-15T22:28:01.994Z,67.08
2018-06-15T22:30:31.090Z,66.71
2018-06-15T22:33:00.182Z,66.82
2018-06-15T22:35:29.289Z,65.83
2018-06-15T22:37:58.385Z,67.04
2018-06-15T22:40:27.473Z,67.24
2018-06-15T22:42:56.580Z,67.71
2018-06-15T22:45:25.665Z,67.34
2018-06-15T22:47:54.762Z,66.76
2018-06-15T22:50:23.893Z,66.46
2018-06-15T22:52:53.028Z,65.56
2018-06-15T22:55:22.109Z,65.32
2018-06-15T22:57:51.301Z,65.18
2018-06-15T23:00:24.261Z,65.02
2018-06-15T23:02:53.357Z,65.97
2018-06-15T23:05:22.650Z,66.42
2018-06-15T23:07:51.867Z,65.20
2018-06-15T23:10:21.031Z,65.35
2018-06-15T23:12:50.260Z,65.18
2018-06-15T23:15:19.346Z,66.48
2018-06-15T23:17:48.450Z,66.49
2018-06-15T23:20:17.553Z,66.97
2018-06-15T23:22:46.672Z,65.81
2018-06-15T23:25:15.781Z,66.60
2018-06-15T23:27:44.876Z,66.71
2018-06-15T23:30:14.012Z,65.93
2018-06-15T23:32:43.127Z,66.47
2018-06-15T23:35:12.213Z,66.55
2018-06-15T23:37:41.333Z,66.09
2018-06-15T23:40:10.474Z,66.13
2018-06-15T23:42:39.601Z,65.91
2018-06-15T23:45:08.697Z,66.91
2018-06-15T23:47:37.893Z,66.42
2018-06-15T23:50:07.504Z,66.11
2018-06-15T23:52:36.614Z,66.64
2018-06-15T23:55:05.859Z,66.84
2018-06-15T23:57:34.969Z,66.87
